createdAt,value
2018-11-05T00:00:50.318Z,57.7
2018-11-05T00:01:40.377Z,57.7
2018-11-05T00:02:30.990Z,57.7
2018-11-05T00:03:20.668Z,57.7
2018-11-05T00:04:10.570Z,57.7
2018-11-05T00:05:01.060Z,57.7
2018-11-05T00:05:51.498Z,57.6
2018-11-05T00:06:41.216Z,57.6
2018-11-05T00:24:56.311Z,57.4
2018-11-05T00:25:46.158Z,57.4
2018-11-05T00:26:35.927Z,57.4
2018-11-05T00:27:26.293Z,57.4
2018-11-05T00:28:16.636Z,57.4
2018-11-05T00:29:06.685Z,57.4
2018-11-05T00:29:56.991Z,57.4
2018-11-05T00:30:47.083Z,57.3
2018-11-05T00:31:36.348Z,57.3
2018-11-05T00:32:27.483Z,57.3
2018-11-05T00:33:16.406Z,57.3
2018-11-05T00:34:06.765Z,57.3
2018-11-05T00:34:56.617Z,57.3
2018-11-05T00:35:46.848Z,57.3
2018-11-05T00:36:37.015Z,57.3
2018-11-05T00:37:26.741Z,57.3
2018-11-05T00:38:17.362Z,57.3
2018-11-05T00:39:07.105Z,57.3
2018-11-05T00:39:57.759Z,57.3
2018-11-05T00:40:48.095Z,57.3
2018-11-05T00:41:37.647Z,57.3
2018-11-05T00:42:27.637Z,57.2
2018-11-05T00:43:17.968Z,57.2
2018-11-05T00:44:57.822Z,57.2
2018-11-05T00:45:49.250Z,57.2
2018-11-05T00:46:38.300Z,57.2
2018-11-05T00:47:28.563Z,57.1
2018-11-05T00:48:18.077Z,57.1
2018-11-05T00:49:08.433Z,57.1
2018-11-05T00:49:58.454Z,57.1
2018-11-05T00:50:47.964Z,57.1
2018-11-05T00:51:38.289Z,57.1
2018-11-05T00:52:28.340Z,57.1
2018-11-05T00:53:18.154Z,57.1
2018-11-05T00:54:08.527Z,57.1
2018-11-05T00:54:58.847Z,57.1
2018-11-05T00:55:49.199Z,57.1
2018-11-05T00:56:38.401Z,57.1
2018-11-05T00:57:29.537Z,57.1
2018-11-05T00:58:18.619Z,57.1
2018-11-05T00:59:08.673Z,57
2018-11-05T00:59:58.924Z,57
2018-11-05T01:00:48.394Z,57
2018-11-05T01:01:39.271Z,57
2018-11-05T01:02:29.148Z,56.9
2018-11-05T01:03:18.676Z,56.9
2018-11-05T01:04:08.954Z,56.9
2018-11-05T01:05:00.092Z,56.9
2018-11-05T01:05:49.331Z,56.9
2018-11-05T01:06:39.108Z,56.9
2018-11-05T01:07:28.979Z,56.9
2018-11-05T01:08:19.794Z,56.9
2018-11-05T01:09:09.603Z,56.9
2018-11-05T01:10:50.021Z,56.9
2018-11-05T01:11:40.030Z,56.9
2018-11-05T01:12:29.851Z,56.9
2018-11-05T01:13:20.460Z,56.8
2018-11-05T01:14:09.376Z,56.8
2018-11-05T01:15:00.074Z,56.8
2018-11-05T01:15:50.672Z,56.8
2018-11-05T01:16:40.410Z,56.8
2018-11-05T01:17:30.176Z,56.8
2018-11-05T01:18:20.346Z,56.8
2018-11-05T01:19:10.967Z,56.8
2018-11-05T01:20:00.335Z,56.8
2018-11-05T01:20:49.965Z,56.8
2018-11-05T01:21:40.490Z,56.8
2018-11-05T01:22:30.590Z,56.7
2018-11-05T01:23:20.901Z,56.8
2018-11-05T01:24:10.708Z,56.7
2018-11-05T01:25:00.477Z,56.7
2018-11-05T01:25:51.305Z,56.7
2018-11-05T01:26:40.880Z,56.7
2018-11-05T01:27:30.930Z,56.7
2018-11-05T01:28:20.986Z,56.7
2018-11-05T01:29:10.860Z,56.6
2018-11-05T01:30:01.196Z,56.6
2018-11-05T01:30:51.200Z,56.6
2018-11-05T01:31:41.504Z,56.6
2018-11-05T01:32:31.020Z,56.6
2018-11-05T01:33:20.907Z,56.6
2018-11-05T01:34:11.147Z,56.6
2018-11-05T01:35:00.899Z,56.6
2018-11-05T01:35:51.819Z,56.6
2018-11-05T01:36:41.015Z,56.6
2018-11-05T01:37:31.380Z,56.6
2018-11-05T01:38:22.265Z,56.5
2018-11-05T01:39:11.482Z,56.5
2018-11-05T01:40:02.127Z,56.5
2018-11-05T01:40:51.916Z,56.5
2018-11-05T01:41:41.690Z,56.5
2018-11-05T01:42:32.126Z,56.4
2018-11-05T01:43:21.031Z,56.4
2018-11-05T01:44:12.146Z,56.4
2018-11-05T01:45:01.517Z,56.4
2018-11-05T01:45:52.542Z,56.4
2018-11-05T01:46:41.816Z,56.4
2018-11-05T01:47:32.113Z,56.4
2018-11-05T01:48:21.898Z,56.4
2018-11-05T01:49:12.523Z,56.4
2018-11-05T01:50:02.369Z,56.4
2018-11-05T01:50:52.148Z,56.4
2018-11-05T01:51:42.983Z,56.4
2018-11-05T01:52:33.070Z,56.3
2018-11-05T01:53:22.628Z,56.3
2018-11-05T01:54:12.881Z,56.3
2018-11-05T01:55:02.443Z,56.3
2018-11-05T01:55:52.977Z,56.3
2018-11-05T01:56:43.335Z,56.3
2018-11-05T01:57:32.545Z,56.3
2018-11-05T01:58:23.753Z,56.3
2018-11-05T01:59:13.498Z,56.3
2018-11-05T02:00:03.321Z,56.3
2018-11-05T02:00:53.090Z,56.3
2018-11-05T02:01:43.699Z,56.3
2018-11-05T02:02:33.830Z,56.3
2018-11-05T02:03:23.662Z,56.2
2018-11-05T02:04:13.390Z,56.3
2018-11-05T02:05:03.692Z,56.2
2018-11-05T02:05:54.302Z,56.2
2018-11-05T02:06:43.872Z,56.2
2018-11-05T02:07:33.558Z,56.2
2018-11-05T02:08:23.593Z,56.1
2018-11-05T02:09:13.203Z,56.1
2018-11-05T02:10:04.203Z,56.1
2018-11-05T02:10:53.976Z,56.1
2018-11-05T02:11:44.696Z,56.1
2018-11-05T02:12:35.040Z,56.1
2018-11-05T02:13:25.436Z,56.1
2018-11-05T02:14:13.942Z,56.1
2018-11-05T02:15:04.706Z,56.1
2018-11-05T02:15:55.287Z,56.1
2018-11-05T02:16:44.801Z,56.1
2018-11-05T02:17:33.895Z,56.1
2018-11-05T02:18:23.886Z,56
2018-11-05T02:19:14.516Z,56
2018-11-05T02:20:04.911Z,56
2018-11-05T02:20:54.634Z,56
2018-11-05T02:21:44.198Z,56
2018-11-05T02:22:34.963Z,56
2018-11-05T02:23:24.526Z,55.9
2018-11-05T02:24:15.361Z,55.9
2018-11-05T02:25:04.664Z,55.9
2018-11-05T02:25:54.110Z,55.9
2018-11-05T02:26:45.335Z,55.9
2018-11-05T02:27:33.754Z,55.9
2018-11-05T02:28:24.671Z,55.9
2018-11-05T02:29:14.916Z,55.9
2018-11-05T02:30:04.986Z,55.9
2018-11-05T02:30:55.314Z,55.9
2018-11-05T02:31:45.706Z,55.9
2018-11-05T02:32:35.468Z,55.8
2018-11-05T02:33:24.976Z,55.8
2018-11-05T02:34:15.898Z,55.8
2018-11-05T02:35:05.668Z,55.8
2018-11-05T02:35:55.139Z,55.8
2018-11-05T02:36:45.796Z,55.8
2018-11-05T02:37:35.803Z,55.8
2018-11-05T02:38:25.323Z,55.8
2018-11-05T02:39:15.943Z,55.6
2018-11-05T02:40:06.310Z,55.5
2018-11-05T02:40:56.142Z,55.5
2018-11-05T02:41:45.950Z,55.5
2018-11-05T02:42:36.228Z,55.6
2018-11-05T02:43:26.822Z,55.7
2018-11-05T02:44:16.642Z,55.8
2018-11-05T02:45:06.368Z,56.1
2018-11-05T02:45:56.484Z,56.3
2018-11-05T02:46:46.199Z,56.4
2018-11-05T02:47:36.592Z,56.6
2018-11-05T02:48:26.412Z,56.8
2018-11-05T02:49:16.697Z,57
2018-11-05T02:50:06.568Z,57.3
2018-11-05T02:50:56.187Z,57.4
2018-11-05T02:51:46.409Z,57.7
2018-11-05T02:52:36.401Z,57.9
2018-11-05T02:53:27.267Z,58.1
2018-11-05T02:54:16.777Z,58.4
2018-11-05T02:55:56.602Z,58.8
2018-11-05T02:56:47.522Z,59.1
2018-11-05T02:57:37.297Z,59.3
2018-11-05T02:58:27.641Z,59.5
2018-11-05T02:59:17.483Z,59.8
2018-11-05T03:00:06.909Z,59.9
2018-11-05T03:00:57.837Z,60.2
2018-11-05T03:01:46.941Z,60.3
2018-11-05T03:02:37.114Z,60.3
2018-11-05T03:03:28.545Z,60.6
2018-11-05T03:04:17.357Z,60.8
2018-11-05T03:05:08.365Z,61
2018-11-05T03:05:57.736Z,61.3
2018-11-05T03:06:47.719Z,61.5
2018-11-05T03:07:37.741Z,61.8
2018-11-05T03:08:28.276Z,61.9
2018-11-05T03:09:18.137Z,62.2
2018-11-05T03:10:08.240Z,62.4
2018-11-05T03:10:58.251Z,62.6
2018-11-05T03:11:48.415Z,62.9
2018-11-05T03:12:38.612Z,63.1
2018-11-05T03:13:28.660Z,63.3
2018-11-05T03:14:18.816Z,63.3
2018-11-05T03:15:09.110Z,63.4
2018-11-05T03:15:58.346Z,63.6
2018-11-05T03:16:48.927Z,63.7
2018-11-05T03:17:38.708Z,63.8
2018-11-05T03:18:29.330Z,63.8
2018-11-05T03:19:18.598Z,63.9
2018-11-05T03:20:09.143Z,64
2018-11-05T03:20:59.790Z,64.1
2018-11-05T03:21:49.853Z,64.2
2018-11-05T03:22:39.046Z,64.2
2018-11-05T03:23:29.933Z,64.3
2018-11-05T03:24:19.441Z,64.4
2018-11-05T03:25:09.226Z,64.6
2018-11-05T03:25:59.930Z,64.6
2018-11-05T03:26:49.690Z,64.6
2018-11-05T03:27:39.685Z,64.6
2018-11-05T03:28:30.330Z,64.8
2018-11-05T03:29:19.525Z,64.8
2018-11-05T03:30:10.601Z,64.9
2018-11-05T03:30:59.936Z,64.9
2018-11-05T03:31:49.937Z,65
2018-11-05T03:32:40.453Z,65.1
2018-11-05T03:33:29.825Z,65.1
2018-11-05T03:34:20.185Z,65.1
2018-11-05T03:35:10.263Z,65.1
2018-11-05T03:36:01.432Z,65.2
2018-11-05T03:36:50.808Z,65.3
2018-11-05T03:37:40.460Z,65.3
2018-11-05T03:38:30.795Z,65.3
2018-11-05T03:39:20.845Z,65.3
2018-11-05T03:40:10.620Z,65.3
2018-11-05T03:41:00.465Z,65.3
2018-11-05T03:41:50.974Z,65.3
2018-11-05T03:42:40.577Z,65.3
2018-11-05T03:43:30.868Z,65.3
2018-11-05T03:44:21.160Z,65.3
2018-11-05T03:45:11.252Z,65.3
2018-11-05T03:46:01.314Z,65.3
2018-11-05T03:46:51.641Z,65.3
2018-11-05T03:47:40.845Z,65.3
2018-11-05T03:48:31.232Z,65.3
2018-11-05T03:49:20.893Z,65.3
2018-11-05T03:50:11.333Z,65.3
2018-11-05T03:51:01.133Z,65.3
2018-11-05T03:51:51.454Z,65.3
2018-11-05T03:52:41.212Z,65.3
2018-11-05T03:53:30.837Z,65.3
2018-11-05T03:54:21.392Z,65.3
2018-11-05T03:55:11.714Z,65.2
2018-11-05T03:56:02.959Z,65.2
2018-11-05T03:56:51.991Z,65.2
2018-11-05T03:57:42.159Z,65.2
2018-11-05T03:58:31.443Z,65.2
2018-11-05T03:59:21.722Z,65.2
2018-11-05T04:00:12.883Z,65.1
2018-11-05T04:01:02.139Z,65.1
2018-11-05T04:01:52.229Z,65.1
2018-11-05T04:02:42.553Z,65.1
2018-11-05T04:03:32.403Z,65.1
2018-11-05T04:04:22.358Z,65.1
2018-11-05T04:05:12.682Z,65.1
2018-11-05T04:06:02.764Z,65.1
2018-11-05T04:06:53.141Z,65.1
2018-11-05T04:07:41.941Z,65.1
2018-11-05T04:08:32.550Z,65.1
2018-11-05T04:09:22.155Z,65.1
2018-11-05T04:10:12.125Z,65.1
2018-11-05T04:11:03.497Z,65.1
2018-11-05T04:11:52.633Z,65
2018-11-05T04:12:43.241Z,65
2018-11-05T04:13:33.038Z,65
2018-11-05T04:14:23.098Z,65
2018-11-05T04:15:13.840Z,65
2018-11-05T04:16:04.653Z,65
2018-11-05T04:16:53.588Z,65
2018-11-05T04:17:43.663Z,64.9
2018-11-05T04:18:32.956Z,64.9
2018-11-05T04:19:22.878Z,64.9
2018-11-05T04:20:14.085Z,64.9
2018-11-05T04:21:03.578Z,64.9
2018-11-05T04:21:53.162Z,64.9
2018-11-05T04:22:44.004Z,64.9
2018-11-05T04:23:34.333Z,64.9
2018-11-05T04:24:24.113Z,64.9
2018-11-05T04:25:13.090Z,64.9
2018-11-05T04:26:03.977Z,64.8
2018-11-05T04:26:54.024Z,64.8
2018-11-05T04:27:45.356Z,64.8
2018-11-05T04:28:34.435Z,64.8
2018-11-05T04:29:24.489Z,64.8
2018-11-05T04:30:14.518Z,64.8
2018-11-05T04:31:04.696Z,64.8
2018-11-05T04:31:53.584Z,64.8
2018-11-05T04:32:44.495Z,64.8
2018-11-05T04:33:34.516Z,64.8
2018-11-05T04:34:24.642Z,64.8
2018-11-05T04:35:14.924Z,64.8
2018-11-05T04:36:04.675Z,64.8
2018-11-05T04:54:08.457Z,64.6
2018-11-05T04:54:58.223Z,64.6
2018-11-05T04:55:48.581Z,64.5
2018-11-05T04:56:38.362Z,64.5
2018-11-05T04:57:28.133Z,64.5
2018-11-05T04:58:19.302Z,64.5
2018-11-05T04:59:08.693Z,64.5
2018-11-05T04:59:58.332Z,64.5
2018-11-05T05:00:48.906Z,64.4
2018-11-05T05:01:38.693Z,64.4
2018-11-05T05:02:28.458Z,64.4
2018-11-05T05:03:18.973Z,64.4
2018-11-05T05:04:09.108Z,64.4
2018-11-05T05:04:58.953Z,64.4
2018-11-05T05:05:49.323Z,64.4
2018-11-05T05:06:39.065Z,64.4
2018-11-05T05:07:28.736Z,64.4
2018-11-05T05:08:18.432Z,64.4
2018-11-05T05:09:09.302Z,64.4
2018-11-05T05:09:59.335Z,64.4
2018-11-05T05:10:49.132Z,64.4
2018-11-05T05:11:38.827Z,64.4
2018-11-05T05:12:29.604Z,64.4
2018-11-05T05:13:20.347Z,64.3
2018-11-05T05:14:09.837Z,64.3
2018-11-05T05:14:59.663Z,64.3
2018-11-05T05:15:49.353Z,64.3
2018-11-05T05:16:39.809Z,64.3
2018-11-05T05:17:29.851Z,64.3
2018-11-05T05:18:19.884Z,64.3
2018-11-05T05:19:10.532Z,64.3
2018-11-05T05:20:00.289Z,64.3
2018-11-05T05:20:50.029Z,64.3
2018-11-05T05:21:40.514Z,64.3
2018-11-05T05:22:30.369Z,64.3
2018-11-05T05:23:19.595Z,64.3
2018-11-05T05:24:10.047Z,64.3
2018-11-05T05:25:01.464Z,64.2
2018-11-05T05:25:50.732Z,64.2
2018-11-05T05:26:40.486Z,64.2
2018-11-05T05:27:30.660Z,64.2
2018-11-05T05:28:20.630Z,64.2
2018-11-05T05:29:10.644Z,64.2
2018-11-05T05:30:00.463Z,64.2
2018-11-05T05:30:51.098Z,64.2
2018-11-05T05:31:40.884Z,64.2
2018-11-05T05:32:30.953Z,64.1
2018-11-05T05:33:20.890Z,64.1
2018-11-05T05:34:11.181Z,64.1
2018-11-05T05:35:01.429Z,64.1
2018-11-05T05:35:50.891Z,64.1
2018-11-05T05:36:40.771Z,64.1
2018-11-05T05:37:30.820Z,64.1
2018-11-05T05:38:21.371Z,64.1
2018-11-05T05:39:11.699Z,64.1
2018-11-05T05:40:01.556Z,64.1
2018-11-05T05:40:52.360Z,64.1
2018-11-05T05:41:41.038Z,64.1
2018-11-05T05:42:31.658Z,64.1
2018-11-05T05:43:21.770Z,64
2018-11-05T05:44:12.062Z,64
2018-11-05T05:45:02.116Z,64
2018-11-05T05:45:51.606Z,64
2018-11-05T05:46:41.397Z,64
2018-11-05T05:47:32.017Z,64
2018-11-05T05:48:22.362Z,63.9
2018-11-05T05:49:12.289Z,63.9
2018-11-05T05:50:02.640Z,63.9
2018-11-05T05:50:52.531Z,63.9
2018-11-05T05:51:42.315Z,63.9
2018-11-05T05:52:32.954Z,63.9
2018-11-05T05:53:22.452Z,63.9
2018-11-05T05:54:12.327Z,63.9
2018-11-05T05:55:02.869Z,63.9
2018-11-05T05:55:53.179Z,63.9
2018-11-05T05:56:42.274Z,63.9
2018-11-05T05:57:32.449Z,63.9
2018-11-05T05:58:23.160Z,63.9
2018-11-05T05:59:12.649Z,63.9
2018-11-05T06:00:04.391Z,63.9
2018-11-05T06:00:52.514Z,63.8
2018-11-05T06:01:42.751Z,63.8
2018-11-05T06:02:32.907Z,63.8
2018-11-05T06:03:23.161Z,63.8
2018-11-05T06:04:13.821Z,63.8
2018-11-05T06:05:03.119Z,63.8
2018-11-05T06:05:53.265Z,63.8
2018-11-05T06:06:43.426Z,63.8
2018-11-05T06:07:33.476Z,63.8
2018-11-05T06:08:23.056Z,63.8
2018-11-05T06:09:13.171Z,63.8
2018-11-05T06:10:03.459Z,63.8
2018-11-05T06:10:53.980Z,63.8
2018-11-05T06:11:43.001Z,63.8
2018-11-05T06:12:34.118Z,63.7
2018-11-05T06:13:23.435Z,63.7
2018-11-05T06:14:13.941Z,63.7
2018-11-05T06:15:03.433Z,63.7
2018-11-05T06:15:55.219Z,63.7
2018-11-05T06:16:43.283Z,63.7
2018-11-05T06:17:33.898Z,63.6
2018-11-05T06:18:24.358Z,63.6
2018-11-05T06:19:13.933Z,63.6
2018-11-05T06:20:04.283Z,63.6
2018-11-05T06:20:54.274Z,63.6
2018-11-05T06:21:45.737Z,63.6
2018-11-05T06:22:34.261Z,63.6
2018-11-05T06:23:23.916Z,63.6
2018-11-05T06:24:14.213Z,63.6
2018-11-05T06:25:04.733Z,63.6
2018-11-05T06:25:55.068Z,63.6
2018-11-05T06:26:44.193Z,63.6
2018-11-05T06:27:34.720Z,63.6
2018-11-05T06:28:25.095Z,63.6
2018-11-05T06:29:15.020Z,63.5
2018-11-05T06:30:05.655Z,63.5
2018-11-05T06:30:54.970Z,63.5
2018-11-05T06:31:45.838Z,63.5
2018-11-05T06:32:35.280Z,63.5
2018-11-05T06:33:25.355Z,63.4
2018-11-05T06:34:15.115Z,63.5
2018-11-05T06:35:05.277Z,63.5
2018-11-05T06:35:55.222Z,63.4
2018-11-05T06:36:46.344Z,63.4
2018-11-05T06:37:35.155Z,63.4
2018-11-05T06:38:25.679Z,63.4
2018-11-05T06:39:15.786Z,63.4
2018-11-05T06:40:05.527Z,63.4
2018-11-05T06:40:56.425Z,63.4
2018-11-05T06:41:46.457Z,63.4
2018-11-05T06:42:35.441Z,63.4
2018-11-05T06:43:26.093Z,63.4
2018-11-05T06:44:17.488Z,63.4
2018-11-05T06:45:06.306Z,63.4
2018-11-05T06:45:55.867Z,63.3
2018-11-05T06:46:46.254Z,63.3
2018-11-05T06:47:36.452Z,63.3
2018-11-05T06:48:26.133Z,63.3
2018-11-05T06:49:16.504Z,63.3
2018-11-05T06:50:06.546Z,63.3
2018-11-05T06:50:56.571Z,63.3
2018-11-05T06:51:46.103Z,63.3
2018-11-05T06:52:36.967Z,63.3
2018-11-05T06:53:26.426Z,63.3
2018-11-05T06:54:16.637Z,63.3
2018-11-05T06:55:07.213Z,63.3
2018-11-05T06:55:57.296Z,63.3
2018-11-05T06:56:46.648Z,63.3
2018-11-05T06:57:37.132Z,63.2
2018-11-05T06:58:27.817Z,63.2
2018-11-05T06:59:16.509Z,63.2
2018-11-05T07:00:07.066Z,63.2
2018-11-05T07:00:57.340Z,63.2
2018-11-05T07:01:47.693Z,63.2
2018-11-05T07:02:36.964Z,63.2
2018-11-05T07:03:26.954Z,63.2
2018-11-05T07:04:17.352Z,63.1
2018-11-05T07:05:06.852Z,63.1
2018-11-05T07:05:59.374Z,63.1
2018-11-05T07:06:47.212Z,63.1
2018-11-05T07:07:37.694Z,63.1
2018-11-05T07:08:27.416Z,63.1
2018-11-05T07:09:17.671Z,63.1
2018-11-05T07:10:07.713Z,63.1
2018-11-05T07:10:57.774Z,63.1
2018-11-05T07:11:47.841Z,63.1
2018-11-05T07:12:38.234Z,63.1
2018-11-05T07:13:28.797Z,63.1
2018-11-05T07:14:18.319Z,63
2018-11-05T07:15:08.348Z,63
2018-11-05T07:15:57.836Z,63
2018-11-05T07:16:48.489Z,63
2018-11-05T07:17:38.490Z,63
2018-11-05T07:18:30.361Z,63
2018-11-05T07:19:20.040Z,63
2018-11-05T07:20:08.753Z,63
2018-11-05T07:20:58.298Z,62.9
2018-11-05T07:21:47.760Z,62.9
2018-11-05T07:23:29.035Z,62.9
2018-11-05T07:24:18.771Z,62.9
2018-11-05T07:25:09.078Z,62.9
2018-11-05T07:25:58.270Z,62.9
2018-11-05T07:26:49.245Z,62.9
2018-11-05T07:27:39.880Z,62.9
2018-11-05T07:28:29.316Z,62.9
2018-11-05T07:29:19.263Z,62.9
2018-11-05T07:30:09.220Z,62.9
2018-11-05T07:30:59.488Z,62.9
2018-11-05T07:31:49.173Z,62.9
2018-11-05T07:32:39.035Z,62.8
2018-11-05T07:33:30.341Z,62.8
2018-11-05T07:34:20.540Z,62.8
2018-11-05T07:35:09.123Z,62.8
2018-11-05T07:35:59.295Z,62.8
2018-11-05T07:36:49.936Z,62.8
2018-11-05T07:37:39.922Z,62.8
2018-11-05T07:38:29.843Z,62.8
2018-11-05T07:39:20.095Z,62.8
2018-11-05T07:40:09.885Z,62.8
2018-11-05T07:40:59.742Z,62.8
2018-11-05T07:41:49.730Z,62.8
2018-11-05T07:42:40.049Z,62.7
2018-11-05T07:43:31.265Z,62.7
2018-11-05T07:44:20.208Z,62.7
2018-11-05T07:45:10.227Z,62.7
2018-11-05T07:46:00.861Z,62.7
2018-11-05T07:46:50.052Z,62.7
2018-11-05T07:47:40.212Z,62.7
2018-11-05T07:48:30.472Z,62.7
2018-11-05T07:49:20.505Z,62.6
2018-11-05T07:50:11.891Z,62.6
2018-11-05T07:51:00.946Z,62.6
2018-11-05T07:51:50.735Z,62.6
2018-11-05T07:52:41.324Z,62.6
2018-11-05T07:53:30.701Z,62.6
2018-11-05T07:54:21.196Z,62.6
2018-11-05T07:55:10.975Z,62.6
2018-11-05T07:56:01.242Z,62.6
2018-11-05T07:56:52.830Z,62.6
2018-11-05T07:57:41.129Z,62.6
2018-11-05T07:58:31.761Z,62.6
2018-11-05T07:59:20.766Z,62.6
2018-11-05T08:00:11.606Z,62.5
2018-11-05T08:01:01.184Z,62.5
2018-11-05T08:01:51.660Z,62.5
2018-11-05T08:02:42.055Z,62.5
2018-11-05T08:03:31.281Z,62.5
2018-11-05T08:04:22.464Z,62.4
2018-11-05T08:05:11.643Z,62.4
2018-11-05T08:06:01.268Z,62.4
2018-11-05T08:06:52.151Z,62.4
2018-11-05T08:07:42.470Z,62.4
2018-11-05T08:08:33.764Z,62.4
2018-11-05T08:09:22.828Z,62.4
2018-11-05T08:10:12.355Z,62.4
2018-11-05T08:11:02.498Z,62.4
2018-11-05T08:11:52.555Z,62.4
2018-11-05T08:12:42.263Z,62.4
2018-11-05T08:13:32.177Z,62.4
2018-11-05T08:14:23.938Z,62.4
2018-11-05T08:15:12.208Z,62.3
2018-11-05T08:16:02.521Z,62.3
2018-11-05T08:16:52.450Z,62.3
2018-11-05T08:17:42.584Z,62.3
2018-11-05T08:18:32.617Z,62.3
2018-11-05T08:19:23.017Z,62.3
2018-11-05T08:20:13.395Z,62.3
2018-11-05T08:21:03.137Z,62.3
2018-11-05T08:21:52.607Z,62.3
2018-11-05T08:22:42.657Z,62.3
2018-11-05T08:23:33.352Z,62.3
2018-11-05T08:24:22.972Z,62.3
2018-11-05T08:25:13.152Z,62.3
2018-11-05T08:26:04.044Z,62.3
2018-11-05T08:26:53.801Z,62.3
2018-11-05T08:27:43.889Z,62.3
2018-11-05T08:28:33.670Z,62.2
2018-11-05T08:29:23.524Z,62.2
2018-11-05T08:30:13.395Z,62.2
2018-11-05T08:31:03.522Z,62.2
2018-11-05T08:31:54.137Z,62.2
2018-11-05T08:32:44.237Z,62.1
2018-11-05T08:33:33.624Z,62.1
2018-11-05T08:34:23.838Z,62.1
2018-11-05T08:35:13.538Z,62.1
2018-11-05T08:36:04.214Z,62.1
2018-11-05T08:36:54.263Z,62.1
2018-11-05T08:37:44.366Z,62.1
2018-11-05T08:38:34.101Z,62.1
2018-11-05T08:39:24.434Z,62.1
2018-11-05T08:40:15.502Z,62.1
2018-11-05T08:41:04.569Z,62.1
2018-11-05T08:41:54.346Z,62.1
2018-11-05T08:42:44.679Z,62.1
2018-11-05T08:43:34.283Z,62.1
2018-11-05T08:44:24.148Z,62.1
2018-11-05T08:45:14.839Z,62
2018-11-05T08:46:04.433Z,62
2018-11-05T08:46:55.374Z,62
2018-11-05T08:47:44.869Z,62
2018-11-05T08:48:34.536Z,61.9
2018-11-05T08:49:24.955Z,61.9
2018-11-05T08:50:15.848Z,61.9
2018-11-05T08:51:09.216Z,61.9
2018-11-05T08:51:55.448Z,61.9
2018-11-05T09:08:38.123Z,61.8
2018-11-05T09:09:29.072Z,61.8
2018-11-05T09:10:20.819Z,61.8
2018-11-05T09:11:11.276Z,61.8
2018-11-05T09:11:58.738Z,61.7
2018-11-05T09:12:49.530Z,61.7
2018-11-05T09:13:39.467Z,61.7
2018-11-05T09:14:29.012Z,61.7
2018-11-05T09:15:19.072Z,61.7
2018-11-05T09:16:09.658Z,61.7
2018-11-05T09:16:59.493Z,61.6
2018-11-05T09:17:49.064Z,61.6
2018-11-05T09:18:38.847Z,61.6
2018-11-05T09:19:29.492Z,61.6
2018-11-05T09:20:19.754Z,61.6
2018-11-05T09:21:09.107Z,61.6
2018-11-05T09:21:58.865Z,61.6
2018-11-05T09:22:49.910Z,61.6
2018-11-05T09:23:39.722Z,61.6
2018-11-05T09:24:29.739Z,61.6
2018-11-05T09:25:19.832Z,61.6
2018-11-05T09:26:09.716Z,61.6
2018-11-05T09:26:59.427Z,61.6
2018-11-05T09:27:50.356Z,61.6
2018-11-05T09:28:40.330Z,61.5
2018-11-05T09:29:30.204Z,61.5
2018-11-05T09:30:19.982Z,61.5
2018-11-05T09:31:10.331Z,61.5
2018-11-05T09:32:00.332Z,61.5
2018-11-05T09:32:50.154Z,61.5
2018-11-05T09:33:39.644Z,61.4
2018-11-05T09:34:30.237Z,61.5
2018-11-05T09:35:20.331Z,61.5
2018-11-05T09:36:10.704Z,61.4
2018-11-05T09:37:00.392Z,61.4
2018-11-05T09:37:50.724Z,61.4
2018-11-05T09:38:40.579Z,61.4
2018-11-05T09:39:30.571Z,61.4
2018-11-05T09:40:19.903Z,61.4
2018-11-05T09:41:11.074Z,61.4
2018-11-05T09:42:01.003Z,61.4
2018-11-05T09:42:52.118Z,61.4
2018-11-05T09:43:40.288Z,61.4
2018-11-05T09:44:30.908Z,61.4
2018-11-05T09:45:20.688Z,61.4
2018-11-05T09:46:11.107Z,61.3
2018-11-05T09:47:00.783Z,61.3
2018-11-05T09:47:51.731Z,61.3
2018-11-05T09:48:41.495Z,61.3
2018-11-05T09:49:31.684Z,61.3
2018-11-05T09:50:21.754Z,61.2
2018-11-05T09:51:11.398Z,61.3
2018-11-05T09:52:00.994Z,61.3
2018-11-05T09:52:52.091Z,61.3
2018-11-05T09:53:41.575Z,61.3
2018-11-05T09:54:32.516Z,61.3
2018-11-05T09:55:22.570Z,61.4
2018-11-05T09:56:12.120Z,61.4
2018-11-05T09:57:02.387Z,61.4
2018-11-05T09:57:51.874Z,61.4
2018-11-05T09:58:42.238Z,61.5
2018-11-05T09:59:32.867Z,61.6
2018-11-05T10:00:22.636Z,61.6
2018-11-05T10:01:12.402Z,61.6
2018-11-05T10:02:01.900Z,61.6
2018-11-05T10:02:54.059Z,61.7
2018-11-05T10:03:44.854Z,61.8
2018-11-05T10:04:35.880Z,61.8
2018-11-05T10:05:23.410Z,61.8
2018-11-05T10:06:12.227Z,61.9
2018-11-05T10:07:03.160Z,61.9
2018-11-05T10:07:53.482Z,61.9
2018-11-05T10:08:42.993Z,62
2018-11-05T10:09:33.281Z,62.1
2018-11-05T10:10:24.999Z,62.1
2018-11-05T10:11:13.209Z,62.2
2018-11-05T10:12:03.781Z,62.2
2018-11-05T10:12:53.289Z,62.3
2018-11-05T10:13:43.583Z,62.3
2018-11-05T10:14:32.885Z,62.4
2018-11-05T10:15:24.004Z,62.4
2018-11-05T10:16:13.255Z,62.4
2018-11-05T10:17:03.483Z,62.5
2018-11-05T10:17:54.056Z,62.5
2018-11-05T10:18:43.277Z,62.6
2018-11-05T10:19:33.453Z,62.6
2018-11-05T10:20:22.926Z,62.7
2018-11-05T10:21:13.690Z,62.8
2018-11-05T10:22:03.386Z,62.8
2018-11-05T10:22:53.872Z,62.8
2018-11-05T10:23:44.155Z,62.9
2018-11-05T10:24:35.297Z,62.9
2018-11-05T10:25:23.600Z,62.9
2018-11-05T10:26:14.338Z,63
2018-11-05T10:27:04.570Z,63.1
2018-11-05T10:27:54.068Z,63.1
2018-11-05T10:28:43.630Z,63.1
2018-11-05T10:29:34.192Z,63.2
2018-11-05T10:30:24.815Z,63.2
2018-11-05T10:31:14.113Z,63.3
2018-11-05T10:32:04.398Z,63.3
2018-11-05T10:32:54.558Z,63.4
2018-11-05T10:33:45.536Z,63.4
2018-11-05T10:34:34.737Z,63.4
2018-11-05T10:35:23.622Z,63.5
2018-11-05T10:36:14.492Z,63.5
2018-11-05T10:37:04.676Z,63.6
2018-11-05T10:37:54.636Z,63.6
2018-11-05T10:38:44.985Z,63.7
2018-11-05T10:39:34.902Z,63.7
2018-11-05T10:40:25.124Z,63.8
2018-11-05T10:41:15.135Z,63.8
2018-11-05T10:42:05.482Z,63.8
2018-11-05T10:42:54.647Z,63.9
2018-11-05T10:43:45.782Z,63.9
2018-11-05T10:44:35.600Z,63.9
2018-11-05T10:45:25.489Z,64
2018-11-05T10:46:16.992Z,64.1
2018-11-05T10:47:05.149Z,64.1
2018-11-05T10:47:56.415Z,64.1
2018-11-05T10:48:45.091Z,64.2
2018-11-05T10:49:35.941Z,64.2
2018-11-05T10:50:27.362Z,64.3
2018-11-05T10:51:16.945Z,64.3
2018-11-05T10:52:09.682Z,64.3
2018-11-05T10:52:56.163Z,64.4
2018-11-05T10:53:46.881Z,64.4
2018-11-05T10:54:37.075Z,64.4
2018-11-05T10:55:26.448Z,64.5
2018-11-05T10:56:16.316Z,64.6
2018-11-05T10:57:07.339Z,64.6
2018-11-05T10:57:57.074Z,64.6
2018-11-05T10:58:46.692Z,64.7
2018-11-05T10:59:36.672Z,64.7
2018-11-05T11:00:26.215Z,64.8
2018-11-05T11:01:16.743Z,64.8
2018-11-05T11:02:07.092Z,64.8
2018-11-05T11:02:57.215Z,64.9
2018-11-05T11:03:47.902Z,64.9
2018-11-05T11:04:37.040Z,64.9
2018-11-05T11:05:27.160Z,64.9
2018-11-05T11:06:17.179Z,65
2018-11-05T11:07:07.485Z,65.1
2018-11-05T11:07:56.990Z,65.1
2018-11-05T11:08:47.940Z,65.1
2018-11-05T11:09:38.448Z,65.1
2018-11-05T11:10:27.704Z,65.2
2018-11-05T11:11:17.033Z,65.2
2018-11-05T11:12:07.308Z,65.3
2018-11-05T11:12:57.691Z,65.3
2018-11-05T11:13:47.677Z,65.3
2018-11-05T11:14:38.385Z,65.4
2018-11-05T11:15:27.961Z,65.4
2018-11-05T11:16:17.907Z,65.4
2018-11-05T11:17:07.967Z,65.4
2018-11-05T11:17:58.013Z,65.5
2018-11-05T11:18:48.372Z,65.5
2018-11-05T11:19:37.365Z,65.6
2018-11-05T11:20:28.517Z,65.6
2018-11-05T11:21:18.239Z,65.6
2018-11-05T11:22:09.000Z,65.7
2018-11-05T11:22:57.311Z,65.7
2018-11-05T11:23:48.923Z,65.8
2018-11-05T11:24:38.478Z,65.8
2018-11-05T11:25:28.229Z,65.8
2018-11-05T11:26:18.179Z,65.8
2018-11-05T11:27:08.286Z,65.9
2018-11-05T11:28:01.613Z,65.9
2018-11-05T11:28:49.723Z,65.9
2018-11-05T11:29:38.668Z,65.9
2018-11-05T11:30:28.922Z,66
2018-11-05T11:31:18.689Z,66
2018-11-05T11:32:08.746Z,66.1
2018-11-05T11:32:58.644Z,66.1
2018-11-05T11:33:48.889Z,66.1
2018-11-05T11:34:38.947Z,66.1
2018-11-05T11:35:28.732Z,66.1
2018-11-05T11:36:20.116Z,66.2
2018-11-05T11:37:09.614Z,66.2
2018-11-05T11:37:59.232Z,66.2
2018-11-05T11:38:49.824Z,66.3
2018-11-05T11:39:39.611Z,66.3
2018-11-05T11:40:29.922Z,66.3
2018-11-05T11:41:19.994Z,66.3
2018-11-05T11:42:09.294Z,66.3
2018-11-05T11:42:59.633Z,66.4
2018-11-05T11:43:50.195Z,66.4
2018-11-05T11:44:40.273Z,66.4
2018-11-05T11:45:30.053Z,66.5
2018-11-05T11:46:19.292Z,66.5
2018-11-05T11:47:09.863Z,66.5
2018-11-05T11:48:00.574Z,66.5
2018-11-05T11:48:50.571Z,66.6
2018-11-05T11:49:40.121Z,66.6
2018-11-05T11:50:30.698Z,66.6
2018-11-05T11:51:20.436Z,66.6
2018-11-05T11:52:10.751Z,66.6
2018-11-05T11:53:00.397Z,66.6
2018-11-05T11:53:50.650Z,66.6
2018-11-05T11:54:41.025Z,66.7
2018-11-05T11:55:30.772Z,66.7
2018-11-05T11:56:20.286Z,66.8
2018-11-05T11:57:11.278Z,66.8
2018-11-05T11:58:00.935Z,66.8
2018-11-05T11:58:51.329Z,66.8
2018-11-05T11:59:41.572Z,66.8
2018-11-05T12:00:31.229Z,66.8
2018-11-05T12:01:21.224Z,66.8
2018-11-05T12:02:12.242Z,66.8
2018-11-05T12:03:01.297Z,66.8